Time;durP1;ratioP1;P1;durP2;ratioP2;P2;SDS_P1;SDS_P2;PMS_P1;PMS_P2;Temp;Humidity;BMP_temperature;BMP_pressure;BME280_temperature;BME280_humidity;BME280_pressure;Samples;Min_cycle;Max_cycle;Signal;HPM_P1;HPM_P2
2022/04/24 00:02:02;;;;;;;0.45;0.45;;;12.90;96.20;;;;;;5010483;28;20053;-71
2022/04/24 00:04:28;;;;;;;0.75;0.75;;;12.80;96.00;;;;;;5009713;28;20049;-71
2022/04/24 00:06:53;;;;;;;0.32;0.32;;;12.80;96.40;;;;;;5007526;28;20038;-71
2022/04/24 00:09:22;;;;;;;0.20;0.15;;;12.70;96.10;;;;;;5009313;28;20046;-71
2022/04/24 00:11:48;;;;;;;0.00;0.00;;;12.80;95.90;;;;;;5009041;28;20049;-71
2022/04/24 00:14:17;;;;;;;0.00;0.00;;;12.70;96.00;;;;;;5008525;28;20046;-71
2022/04/24 00:16:43;;;;;;;1.25;1.10;;;12.50;96.50;;;;;;4994813;28;20057;-71
2022/04/24 00:19:09;;;;;;;0.57;0.57;;;12.50;96.20;;;;;;4999825;28;20049;-70
2022/04/24 00:21:34;;;;;;;0.30;0.30;;;12.40;97.30;;;;;;4989738;28;20092;-70
2022/04/24 00:24:00;;;;;;;0.50;0.50;;;12.30;97.20;;;;;;5003811;28;20137;-71
2022/04/24 00:26:26;;;;;;;0.10;0.10;;;12.40;96.80;;;;;;5007246;28;20042;-71
2022/04/24 00:28:52;;;;;;;0.10;0.10;;;12.40;96.50;;;;;;5006338;28;20045;-71
2022/04/24 00:31:17;;;;;;;0.65;0.65;;;12.30;96.40;;;;;;5008987;28;20054;-71
2022/04/24 00:33:43;;;;;;;0.03;0.03;;;12.40;96.60;;;;;;5009617;28;20045;-71
2022/04/24 00:36:08;;;;;;;0.30;0.30;;;12.40;96.70;;;;;;5026590;28;20050;-71
2022/04/24 00:38:35;;;;;;;0.13;0.13;;;12.30;96.40;;;;;;5013279;28;20215;-71
2022/04/24 00:41:01;;;;;;;0.57;0.57;;;12.20;96.60;;;;;;5014004;28;20137;-71
2022/04/24 00:43:27;;;;;;;0.90;0.40;;;12.30;96.70;;;;;;5013820;28;20061;-71
2022/04/24 00:46:00;;;;;;;2.20;1.58;;;12.20;96.50;;;;;;5011008;28;20042;-71
2022/04/24 00:48:26;;;;;;;0.52;0.52;;;12.10;96.60;;;;;;5011858;28;20057;-71
2022/04/24 00:50:52;;;;;;;0.55;0.55;;;12.20;96.30;;;;;;5012905;28;20046;-71
2022/04/24 00:53:17;;;;;;;0.00;0.00;;;12.10;96.50;;;;;;5013687;28;20045;-71
2022/04/24 00:55:44;;;;;;;0.75;0.52;;;12.10;96.30;;;;;;5016080;28;20054;-71
2022/04/24 00:58:10;;;;;;;0.47;0.47;;;12.20;97.50;;;;;;5011767;28;20088;-71
2022/04/24 01:00:38;;;;;;;0.40;0.40;;;12.00;96.70;;;;;;5012217;28;20050;-71
2022/04/24 01:03:04;;;;;;;0.15;0.15;;;11.90;96.50;;;;;;5040596;28;20053;-71
2022/04/24 01:05:30;;;;;;;0.30;0.30;;;11.80;97.00;;;;;;5008483;28;20121;-71
2022/04/24 01:07:55;;;;;;;0.10;0.10;;;11.90;96.80;;;;;;5010036;28;20150;-71
2022/04/24 01:10:21;;;;;;;0.40;0.40;;;11.80;96.80;;;;;;5012501;28;20046;-71
2022/04/24 01:12:46;;;;;;;1.35;0.73;;;11.70;96.80;;;;;;5011417;28;20113;-71
2022/04/24 01:15:13;;;;;;;0.25;0.25;;;11.70;97.30;;;;;;4997611;28;20053;-71
2022/04/24 01:17:39;;;;;;;0.17;0.17;;;11.80;97.00;;;;;;4998829;28;20082;-71
2022/04/24 01:20:05;;;;;;;0.10;0.10;;;11.80;97.10;;;;;;5010829;28;20050;-71
2022/04/24 01:22:31;;;;;;;0.28;0.28;;;11.80;97.50;;;;;;5011880;28;20038;-71
2022/04/24 01:24:56;;;;;;;0.15;0.15;;;11.80;97.00;;;;;;5018175;28;20100;-70
2022/04/24 01:27:22;;;;;;;0.20;0.20;;;11.70;96.70;;;;;;5011378;28;20053;-71
2022/04/24 01:29:47;;;;;;;0.70;0.70;;;11.60;96.90;;;;;;5011723;28;20046;-70
2022/04/24 01:32:13;;;;;;;0.68;0.68;;;11.60;97.80;;;;;;5011506;28;20041;-70
2022/04/24 01:34:38;;;;;;;0.10;0.10;;;11.50;96.80;;;;;;5011877;28;20448;-71
2022/04/24 01:37:04;;;;;;;0.40;0.40;;;11.50;96.90;;;;;;5010125;28;20038;-70
2022/04/24 01:39:29;;;;;;;0.20;0.20;;;11.50;97.40;;;;;;5011777;28;20053;-71
2022/04/24 01:41:55;;;;;;;0.30;0.30;;;11.40;97.00;;;;;;5012332;28;20038;-70
2022/04/24 01:44:21;;;;;;;0.35;0.25;;;11.40;97.10;;;;;;5006674;28;20090;-71
2022/04/24 01:46:47;;;;;;;0.35;0.25;;;11.30;97.50;;;;;;5008474;28;20405;-71
2022/04/24 01:49:13;;;;;;;0.63;0.63;;;11.20;97.60;;;;;;4998756;28;20042;-71
2022/04/24 01:51:39;;;;;;;0.28;0.28;;;11.20;97.60;;;;;;4996369;28;20038;-71
2022/04/24 01:54:04;;;;;;;0.50;0.50;;;11.20;97.70;;;;;;5015308;28;20049;-71
2022/04/24 01:56:30;;;;;;;0.10;0.10;;;11.20;97.70;;;;;;5008844;28;20054;-71
2022/04/24 01:58:55;;;;;;;0.47;0.25;;;11.20;97.80;;;;;;5012607;28;20129;-71
2022/04/24 02:01:21;;;;;;;0.10;0.10;;;11.10;97.80;;;;;;5015882;28;20050;-70
2022/04/24 02:03:46;;;;;;;0.20;0.20;;;11.00;97.80;;;;;;4999608;28;20482;-71
2022/04/24 02:06:12;;;;;;;0.50;0.50;;;11.00;97.60;;;;;;5011926;28;20056;-71
2022/04/24 02:08:38;;;;;;;0.30;0.30;;;10.90;98.00;;;;;;5010921;28;20098;-71
2022/04/24 02:11:06;;;;;;;0.52;0.52;;;11.10;98.00;;;;;;5009683;28;20046;-70
2022/04/24 02:13:32;;;;;;;0.20;0.20;;;11.10;97.80;;;;;;5004537;28;20041;-71
2022/04/24 02:15:57;;;;;;;1.17;0.55;;;11.10;97.40;;;;;;5010705;28;20041;-71
2022/04/24 02:18:23;;;;;;;0.10;0.10;;;10.90;97.70;;;;;;5011865;28;20042;-70
2022/04/24 02:20:48;;;;;;;0.47;0.47;;;10.90;97.80;;;;;;5011000;28;20132;-70
2022/04/24 02:23:14;;;;;;;0.65;0.60;;;11.00;97.70;;;;;;5011384;28;20129;-70
2022/04/24 02:25:39;;;;;;;0.88;0.75;;;11.00;97.80;;;;;;5009216;28;20049;-70
2022/04/24 02:28:05;;;;;;;0.20;0.20;;;10.90;97.90;;;;;;5006552;28;20110;-70
2022/04/24 02:30:31;;;;;;;0.00;0.00;;;10.70;97.80;;;;;;5003857;28;20046;-70
2022/04/24 02:32:58;;;;;;;0.22;0.22;;;10.80;98.50;;;;;;5002600;28;20041;-70
2022/04/24 02:35:24;;;;;;;5.30;1.65;;;10.80;97.90;;;;;;5010803;28;20093;-70
2022/04/24 02:37:50;;;;;;;0.10;0.10;;;11.10;98.60;;;;;;5010715;28;20050;-70
2022/04/24 02:40:21;;;;;;;0.20;0.20;;;11.00;97.80;;;;;;5010805;28;20054;-70
2022/04/24 02:42:47;;;;;;;0.32;0.32;;;10.90;98.10;;;;;;4995797;28;20097;-70
2022/04/24 02:45:12;;;;;;;0.40;0.40;;;10.80;98.40;;;;;;5009574;28;20121;-70
2022/04/24 02:47:38;;;;;;;0.13;0.13;;;10.90;98.00;;;;;;5008157;28;20054;-70
2022/04/24 02:50:04;;;;;;;0.13;0.13;;;10.80;98.00;;;;;;5011610;28;20056;-70
2022/04/24 02:52:30;;;;;;;2.53;1.15;;;10.80;98.40;;;;;;5011026;28;20069;-70
2022/04/24 02:54:55;;;;;;;0.35;0.30;;;10.80;98.70;;;;;;5022039;28;20494;-70
2022/04/24 02:57:21;;;;;;;0.10;0.10;;;10.90;98.60;;;;;;5008700;28;20136;-70
2022/04/24 02:59:49;;;;;;;0.10;0.10;;;10.80;98.50;;;;;;5008298;28;20046;-70
2022/04/24 03:02:16;;;;;;;0.10;0.10;;;10.90;98.20;;;;;;5009079;28;20081;-70
2022/04/24 03:04:41;;;;;;;0.20;0.20;;;10.90;98.70;;;;;;5005169;28;20045;-70
2022/04/24 03:07:07;;;;;;;1.05;0.75;;;10.90;98.40;;;;;;5009985;28;20407;-70
2022/04/24 03:09:33;;;;;;;0.17;0.17;;;10.80;98.40;;;;;;5010646;28;20077;-70
2022/04/24 03:11:58;;;;;;;3.65;1.95;;;10.70;98.30;;;;;;5009506;28;20071;-70
2022/04/24 03:14:24;;;;;;;0.08;0.08;;;10.70;98.70;;;;;;5007615;28;20046;-70
2022/04/24 03:16:50;;;;;;;0.05;0.05;;;10.70;98.50;;;;;;5003749;28;20592;-70
2022/04/24 03:19:15;;;;;;;1.25;0.65;;;10.70;98.60;;;;;;5009845;28;20092;-70
2022/04/24 03:21:41;;;;;;;0.15;0.15;;;10.70;98.80;;;;;;5010440;28;20050;-70
2022/04/24 03:24:06;;;;;;;0.30;0.30;;;10.70;98.80;;;;;;5025980;28;20052;-70
2022/04/24 03:26:32;;;;;;;0.55;0.55;;;10.70;98.90;;;;;;5029916;28;20073;-70
2022/04/24 03:28:58;;;;;;;0.08;0.08;;;10.60;98.70;;;;;;5013278;28;20384;-69
2022/04/24 03:31:24;;;;;;;0.52;0.52;;;10.70;98.70;;;;;;5008685;28;20046;-69
2022/04/24 03:33:52;;;;;;;0.20;0.20;;;10.60;98.80;;;;;;5009054;28;20054;-69
2022/04/24 03:36:18;;;;;;;3.83;1.98;;;10.70;98.90;;;;;;5011255;28;20053;-70
2022/04/24 03:38:43;;;;;;;0.10;0.10;;;10.60;99.20;;;;;;5006682;28;20053;-69
2022/04/24 03:41:09;;;;;;;1.27;0.57;;;10.60;99.30;;;;;;5008185;28;20038;-70
2022/04/24 03:43:34;;;;;;;0.15;0.15;;;10.60;99.30;;;;;;5000976;28;20068;-69
2022/04/24 03:46:00;;;;;;;0.10;0.10;;;10.60;99.20;;;;;;5009904;28;20504;-70
2022/04/24 03:48:25;;;;;;;0.30;0.30;;;10.60;99.90;;;;;;5000468;28;20053;-69
2022/04/24 03:50:51;;;;;;;0.45;0.45;;;10.60;99.40;;;;;;5010486;28;20060;-69
2022/04/24 03:53:18;;;;;;;0.00;0.00;;;10.70;99.40;;;;;;5012741;28;20045;-70
2022/04/24 03:55:43;;;;;;;0.75;0.65;;;10.70;99.50;;;;;;5009276;28;20390;-69
2022/04/24 03:58:11;;;;;;;0.13;0.13;;;10.70;99.70;;;;;;5008903;28;20081;-70
2022/04/24 04:00:36;;;;;;;2.40;1.45;;;10.60;99.90;;;;;;5000212;28;20514;-69
2022/04/24 04:03:02;;;;;;;1.10;0.30;;;10.70;99.80;;;;;;5004953;28;20124;-70
2022/04/24 04:05:27;;;;;;;0.15;0.15;;;10.70;99.90;;;;;;5004603;28;20038;-69
2022/04/24 04:07:53;;;;;;;0.10;0.10;;;10.60;99.90;;;;;;5009332;28;20057;-70
2022/04/24 04:10:19;;;;;;;0.15;0.15;;;10.70;99.90;;;;;;5011411;28;20394;-69
2022/04/24 04:12:44;;;;;;;1.55;0.50;;;10.70;99.90;;;;;;5012648;28;20037;-70
2022/04/24 04:15:10;;;;;;;0.22;0.22;;;10.50;99.90;;;;;;5029507;28;20058;-70
2022/04/24 04:17:36;;;;;;;2.08;1.40;;;10.70;99.90;;;;;;5013688;28;20057;-70
2022/04/24 04:20:01;;;;;;;0.10;0.10;;;10.60;99.90;;;;;;5011298;28;20038;-70
2022/04/24 04:22:27;;;;;;;1.55;0.90;;;10.70;99.90;;;;;;5014624;28;20038;-70
2022/04/24 04:24:52;;;;;;;1.05;1.05;;;10.50;99.90;;;;;;5012812;28;20046;-69
2022/04/24 04:27:18;;;;;;;0.52;0.52;;;10.60;99.90;;;;;;4996773;28;20038;-70
2022/04/24 04:29:44;;;;;;;0.20;0.20;;;10.50;99.90;;;;;;5012702;28;20049;-69
2022/04/24 04:32:10;;;;;;;0.47;0.47;;;10.50;99.90;;;;;;5014327;28;20046;-69
2022/04/24 04:34:35;;;;;;;0.20;0.20;;;10.50;99.90;;;;;;5006191;28;20057;-69
2022/04/24 04:37:01;;;;;;;0.10;0.10;;;10.40;99.90;;;;;;5011490;28;20034;-69
2022/04/24 04:39:26;;;;;;;0.90;0.90;;;10.30;99.90;;;;;;5012907;28;20049;-69
2022/04/24 04:41:52;;;;;;;0.10;0.10;;;10.40;99.90;;;;;;5012153;28;20096;-69
2022/04/24 04:44:18;;;;;;;0.50;0.50;;;10.30;99.90;;;;;;5012543;28;20049;-69
2022/04/24 04:46:43;;;;;;;0.30;0.28;;;10.30;99.90;;;;;;5013706;28;20111;-69
2022/04/24 04:49:09;;;;;;;0.80;0.43;;;10.40;99.90;;;;;;5014027;28;20133;-69
2022/04/24 04:51:35;;;;;;;0.28;0.28;;;10.40;99.90;;;;;;5011288;28;20069;-69
2022/04/24 04:54:00;;;;;;;0.10;0.10;;;10.40;99.90;;;;;;5012673;28;20045;-69
2022/04/24 04:56:26;;;;;;;0.13;0.13;;;10.40;99.90;;;;;;5020252;28;20049;-69
2022/04/24 04:58:51;;;;;;;0.35;0.35;;;10.40;99.90;;;;;;5012217;28;20107;-69
2022/04/24 05:01:17;;;;;;;0.30;0.30;;;10.40;99.90;;;;;;5013624;28;20095;-69
2022/04/24 05:03:43;;;;;;;2.75;1.45;;;10.40;99.90;;;;;;5013341;28;20045;-69
2022/04/24 05:06:08;;;;;;;0.10;0.10;;;10.50;99.90;;;;;;5004908;28;20035;-69
2022/04/24 05:08:34;;;;;;;0.30;0.30;;;10.50;99.90;;;;;;5008680;28;20049;-69
2022/04/24 05:11:00;;;;;;;0.30;0.30;;;10.50;99.90;;;;;;5012933;28;20053;-69
2022/04/24 05:13:25;;;;;;;2.33;0.82;;;10.50;99.90;;;;;;5012727;28;20139;-69
2022/04/24 05:15:51;;;;;;;0.13;0.13;;;10.60;99.90;;;;;;5012785;28;20093;-69
2022/04/24 05:18:18;;;;;;;0.10;0.10;;;10.50;99.90;;;;;;5012497;28;20042;-69
2022/04/24 05:20:44;;;;;;;0.10;0.10;;;10.50;99.90;;;;;;5002038;28;20085;-69
2022/04/24 05:23:10;;;;;;;0.10;0.10;;;10.60;99.90;;;;;;5015256;28;20077;-69
2022/04/24 05:25:36;;;;;;;0.15;0.15;;;10.70;99.90;;;;;;5008931;28;20076;-69
2022/04/24 05:28:05;;;;;;;0.52;0.45;;;10.70;99.90;;;;;;5000638;28;20046;-69
2022/04/24 05:30:31;;;;;;;0.00;0.00;;;10.70;99.90;;;;;;5012542;28;20438;-69
2022/04/24 05:32:57;;;;;;;0.50;0.50;;;10.60;99.90;;;;;;5011059;28;20124;-69
2022/04/24 05:35:23;;;;;;;0.08;0.08;;;10.60;99.90;;;;;;5012037;28;20116;-69
2022/04/24 05:37:49;;;;;;;0.63;0.57;;;10.50;99.90;;;;;;5012676;28;20228;-69
2022/04/24 05:40:15;;;;;;;0.13;0.13;;;10.60;99.90;;;;;;5010496;28;20042;-69
2022/04/24 05:42:45;;;;;;;0.10;0.10;;;10.60;99.90;;;;;;5012140;28;20580;-69
2022/04/24 05:45:14;;;;;;;0.52;0.52;;;10.70;99.90;;;;;;5011931;28;20528;-69
2022/04/24 05:47:41;;;;;;;0.43;0.43;;;10.60;99.90;;;;;;5010726;28;20081;-69
2022/04/24 05:50:06;;;;;;;0.75;0.75;;;10.70;99.90;;;;;;4997680;28;20516;-70
2022/04/24 05:52:32;;;;;;;0.20;0.20;;;10.70;99.90;;;;;;5002053;28;20034;-69
2022/04/24 05:54:57;;;;;;;0.63;0.47;;;10.80;99.90;;;;;;5011447;28;20061;-69
2022/04/24 05:57:23;;;;;;;0.32;0.32;;;10.90;99.90;;;;;;5009423;28;20050;-69
2022/04/24 05:59:48;;;;;;;0.63;0.55;;;11.00;99.90;;;;;;5010230;28;20057;-69
2022/04/24 06:02:14;;;;;;;0.20;0.20;;;10.90;99.90;;;;;;4996001;28;20089;-69
2022/04/24 06:04:39;;;;;;;0.15;0.15;;;11.00;99.90;;;;;;5010569;28;20057;-69
2022/04/24 06:07:05;;;;;;;0.10;0.10;;;11.20;99.90;;;;;;5012695;28;20038;-69
2022/04/24 06:09:31;;;;;;;0.10;0.10;;;11.20;99.90;;;;;;5010110;28;20073;-72
2022/04/24 06:12:00;;;;;;;1.88;0.45;;;11.20;99.90;;;;;;5011701;28;20034;-70
2022/04/24 06:14:26;;;;;;;0.30;0.30;;;11.20;99.90;;;;;;5010729;28;20541;-69
2022/04/24 06:16:52;;;;;;;0.10;0.10;;;11.20;99.90;;;;;;5009289;28;20133;-69
2022/04/24 06:19:17;;;;;;;0.10;0.10;;;11.30;99.90;;;;;;5008497;28;20128;-69
2022/04/24 06:21:43;;;;;;;0.70;0.70;;;11.30;99.90;;;;;;5007717;28;20042;-69
2022/04/24 06:24:08;;;;;;;0.85;0.63;;;11.40;99.90;;;;;;5021420;28;20042;-69
2022/04/24 06:26:34;;;;;;;0.10;0.10;;;11.40;99.90;;;;;;5007162;28;20089;-70
2022/04/24 06:28:59;;;;;;;0.10;0.10;;;11.40;99.90;;;;;;5010533;28;20057;-70
2022/04/24 06:31:25;;;;;;;0.00;0.00;;;11.50;99.90;;;;;;5011428;28;20065;-70
2022/04/24 06:33:50;;;;;;;3.13;0.88;;;11.50;99.90;;;;;;5010453;28;20049;-70
2022/04/24 06:36:16;;;;;;;0.15;0.15;;;11.50;99.90;;;;;;5010051;28;20042;-70
2022/04/24 06:38:41;;;;;;;0.55;0.55;;;11.50;99.90;;;;;;5011617;28;20054;-70
2022/04/24 06:41:07;;;;;;;0.25;0.25;;;11.60;99.90;;;;;;5011225;28;20064;-70
2022/04/24 06:43:32;;;;;;;0.65;0.28;;;11.70;99.90;;;;;;5010686;28;20149;-70
2022/04/24 06:45:58;;;;;;;0.20;0.20;;;11.80;99.90;;;;;;5011786;28;20050;-70
2022/04/24 06:48:24;;;;;;;0.22;0.22;;;11.90;99.90;;;;;;5010716;28;20049;-70
2022/04/24 06:50:49;;;;;;;0.10;0.10;;;12.00;99.60;;;;;;5015911;28;20048;-70
2022/04/24 06:53:20;;;;;;;0.00;0.00;;;12.00;99.30;;;;;;5013262;28;20092;-69
2022/04/24 06:55:47;;;;;;;0.10;0.10;;;12.10;99.40;;;;;;5009297;28;20049;-70
2022/04/24 06:58:15;;;;;;;0.20;0.20;;;12.10;98.90;;;;;;5007487;28;20046;-70
2022/04/24 07:00:42;;;;;;;0.10;0.10;;;12.10;98.60;;;;;;5008998;28;20053;-70
2022/04/24 07:03:12;;;;;;;0.10;0.10;;;12.20;98.10;;;;;;5010543;28;20061;-70
2022/04/24 07:05:39;;;;;;;0.17;0.17;;;12.30;98.50;;;;;;5006928;28;20046;-69
2022/04/24 07:08:04;;;;;;;0.00;0.00;;;12.40;97.70;;;;;;5009704;28;20056;-70
2022/04/24 07:10:30;;;;;;;0.40;0.40;;;12.40;97.10;;;;;;5010361;28;20049;-69
2022/04/24 07:12:56;;;;;;;0.10;0.10;;;12.40;97.60;;;;;;5010491;28;20523;-69
2022/04/24 07:15:23;;;;;;;8.80;2.72;;;12.50;97.30;;;;;;5011190;28;20054;-70
2022/04/24 07:17:50;;;;;;;0.17;0.17;;;12.50;96.90;;;;;;5001980;28;20075;-70
2022/04/24 07:20:17;;;;;;;0.10;0.10;;;12.50;97.00;;;;;;5000722;28;20082;-70
2022/04/24 07:22:47;;;;;;;2.38;0.80;;;12.70;96.50;;;;;;4996501;28;20050;-69
2022/04/24 07:25:15;;;;;;;0.10;0.10;;;12.70;96.40;;;;;;5003843;28;20402;-69
2022/04/24 07:27:41;;;;;;;2.30;0.57;;;12.70;96.80;;;;;;4999723;28;20117;-70
2022/04/24 07:30:13;;;;;;;0.45;0.45;;;12.70;96.50;;;;;;5010698;28;20041;-69
2022/04/24 07:32:41;;;;;;;0.00;0.00;;;12.80;96.50;;;;;;5009664;28;20493;-70
2022/04/24 07:35:12;;;;;;;0.10;0.10;;;12.80;96.50;;;;;;5010712;28;20523;-70
2022/04/24 07:37:37;;;;;;;0.88;0.88;;;12.90;96.50;;;;;;5008401;28;20065;-70
2022/04/24 07:40:08;;;;;;;0.25;0.25;;;12.90;95.90;;;;;;5002399;28;20038;-69
2022/04/24 07:42:55;;;;;;;0.08;0.08;;;13.00;96.60;;;;;;4998019;28;20052;-70
2022/04/24 07:45:25;;;;;;;0.10;0.10;;;13.10;95.80;;;;;;4998134;28;20093;-67
2022/04/24 07:47:52;;;;;;;0.00;0.00;;;13.20;95.10;;;;;;4995742;28;20523;-69
2022/04/24 07:50:20;;;;;;;0.10;0.10;;;13.20;95.30;;;;;;5008802;28;20042;-69
2022/04/24 07:52:47;;;;;;;0.10;0.10;;;13.30;95.10;;;;;;5003652;28;20123;-69
2022/04/24 07:55:15;;;;;;;0.00;0.00;;;13.50;94.20;;;;;;5004300;28;20065;-68
2022/04/24 07:57:41;;;;;;;0.00;0.00;;;13.50;94.10;;;;;;5009917;28;20150;-68
2022/04/24 08:00:10;;;;;;;0.05;0.05;;;13.50;94.20;;;;;;5005141;28;20109;-69
2022/04/24 08:02:50;;;;;;;0.10;0.10;;;13.60;93.90;;;;;;5006349;28;20082;-68
2022/04/24 08:05:23;;;;;;;0.20;0.20;;;13.60;93.30;;;;;;5010056;28;20104;-69
2022/04/24 08:07:49;;;;;;;0.00;0.00;;;13.60;92.90;;;;;;5010022;28;20092;-68
2022/04/24 08:10:15;;;;;;;0.05;0.05;;;13.70;93.10;;;;;;5012514;28;20050;-68
2022/04/24 08:12:41;;;;;;;0.10;0.10;;;13.80;93.30;;;;;;5009991;28;20041;-69
2022/04/24 08:15:07;;;;;;;0.10;0.10;;;13.80;93.10;;;;;;5009155;28;20065;-68
2022/04/24 08:17:32;;;;;;;0.22;0.22;;;13.90;93.80;;;;;;5008195;28;20038;-68
2022/04/24 08:19:58;;;;;;;0.10;0.10;;;14.10;93.60;;;;;;5004778;28;20123;-69
2022/04/24 08:22:23;;;;;;;0.65;0.65;;;14.10;93.40;;;;;;4999685;28;20508;-68
2022/04/24 08:24:49;;;;;;;0.00;0.00;;;14.20;93.10;;;;;;4997485;28;20046;-68
2022/04/24 08:27:14;;;;;;;0.20;0.20;;;14.20;93.30;;;;;;4991427;28;20042;-67
2022/04/24 08:29:40;;;;;;;0.10;0.10;;;14.30;91.80;;;;;;5004092;28;20453;-68
2022/04/24 08:32:06;;;;;;;0.10;0.10;;;14.30;93.60;;;;;;4997095;28;20121;-68
2022/04/24 08:34:31;;;;;;;0.30;0.30;;;14.40;92.80;;;;;;5008652;28;20068;-67
2022/04/24 08:36:57;;;;;;;0.40;0.40;;;14.30;93.10;;;;;;4995520;28;20054;-68
2022/04/24 08:39:22;;;;;;;0.10;0.10;;;14.30;93.40;;;;;;4990185;28;20054;-68
2022/04/24 08:41:49;;;;;;;0.10;0.10;;;14.30;93.50;;;;;;4997520;28;20426;-68
2022/04/24 08:44:14;;;;;;;0.30;0.30;;;14.40;94.60;;;;;;4999671;28;20034;-68
2022/04/24 08:46:43;;;;;;;0.10;0.10;;;14.60;94.10;;;;;;4995213;28;20476;-68
2022/04/24 08:49:10;;;;;;;0.10;0.10;;;14.70;92.70;;;;;;5003752;28;20143;-68
2022/04/24 08:51:39;;;;;;;0.10;0.10;;;14.80;92.10;;;;;;4993400;28;20051;-68
2022/04/24 08:54:05;;;;;;;0.10;0.10;;;15.00;92.20;;;;;;4993477;28;20046;-68
2022/04/24 08:56:30;;;;;;;2.83;0.57;;;15.40;92.30;;;;;;5002793;28;20107;-68
2022/04/24 08:58:56;;;;;;;0.10;0.10;;;16.00;91.60;;;;;;5009291;28;20061;-68
2022/04/24 09:01:21;;;;;;;0.10;0.10;;;16.80;91.70;;;;;;5008965;28;20060;-66
2022/04/24 09:03:47;;;;;;;0.00;0.00;;;17.10;90.60;;;;;;4999471;28;20042;-68
2022/04/24 09:06:22;;;;;;;0.50;0.50;;;17.40;90.20;;;;;;5008041;28;20446;-68
2022/04/24 09:08:48;;;;;;;0.10;0.10;;;18.20;90.00;;;;;;5013432;28;20045;-68
2022/04/24 09:11:14;;;;;;;0.00;0.00;;;18.40;90.00;;;;;;5012447;28;20050;-68
2022/04/24 09:16:34;;;;;;;0.10;0.10;;;18.70;89.10;;;;;;5001563;28;20654;-68
2022/04/24 09:19:00;;;;;;;0.22;0.22;;;18.90;88.10;;;;;;5004187;28;20056;-68
2022/04/24 09:21:25;;;;;;;0.55;0.55;;;19.00;89.10;;;;;;4992584;28;20042;-68
2022/04/24 09:23:51;;;;;;;0.30;0.30;;;19.00;90.30;;;;;;5001795;28;20049;-67
2022/04/24 09:26:17;;;;;;;0.55;0.55;;;18.80;90.60;;;;;;5009935;28;20045;-68
2022/04/24 09:28:43;;;;;;;0.00;0.00;;;19.00;90.80;;;;;;5001287;28;20043;-68
2022/04/24 09:31:09;;;;;;;0.10;0.10;;;19.20;90.20;;;;;;5008575;28;20044;-68
2022/04/24 09:33:36;;;;;;;0.10;0.10;;;19.10;90.80;;;;;;5003267;28;20500;-67
2022/04/24 09:36:02;;;;;;;2.35;0.45;;;19.10;90.00;;;;;;4996292;28;20046;-67
2022/04/24 09:38:28;;;;;;;0.13;0.13;;;19.50;90.40;;;;;;4995105;28;20042;-67
2022/04/24 09:40:53;;;;;;;0.00;0.00;;;19.40;88.70;;;;;;5003322;28;20046;-67
2022/04/24 09:43:20;;;;;;;0.22;0.22;;;19.40;86.70;;;;;;5005973;28;20054;-67
2022/04/24 09:45:51;;;;;;;0.03;0.03;;;19.00;87.10;;;;;;5009143;28;20045;-66
2022/04/24 09:48:19;;;;;;;0.00;0.00;;;19.40;87.40;;;;;;5010264;28;20496;-66
2022/04/24 09:50:45;;;;;;;0.10;0.10;;;19.90;86.80;;;;;;5010091;28;20045;-67
2022/04/24 09:53:19;;;;;;;0.40;0.40;;;19.50;88.50;;;;;;5010933;28;20421;-66
2022/04/24 09:55:45;;;;;;;0.25;0.25;;;19.70;86.50;;;;;;4994412;28;20055;-66
2022/04/24 09:58:14;;;;;;;0.45;0.45;;;19.80;85.10;;;;;;4998088;28;20049;-67
2022/04/24 10:00:44;;;;;;;1.02;0.95;;;19.60;86.90;;;;;;5003539;28;20081;-67
2022/04/24 10:03:12;;;;;;;0.00;0.00;;;19.80;86.00;;;;;;4994330;28;20034;-67
2022/04/24 10:05:42;;;;;;;0.63;0.57;;;19.70;87.60;;;;;;4992298;28;20046;-66
2022/04/24 10:08:08;;;;;;;0.43;0.40;;;19.60;86.70;;;;;;5001501;28;20033;-66
2022/04/24 10:10:34;;;;;;;0.08;0.08;;;19.70;88.00;;;;;;5011403;28;20049;-67
2022/04/24 10:13:06;;;;;;;0.57;0.55;;;19.50;86.80;;;;;;5005798;28;20521;-67
2022/04/24 10:15:33;;;;;;;0.17;0.17;;;19.60;87.20;;;;;;5006308;28;20050;-67
2022/04/24 10:18:24;;;;;;;0.00;0.00;;;19.50;86.80;;;;;;5009172;28;20096;-66
2022/04/24 10:21:21;;;;;;;0.63;0.45;;;19.50;88.10;;;;;;5009802;28;20041;-67
2022/04/24 10:23:46;;;;;;;0.08;0.08;;;19.30;86.20;;;;;;4993945;28;20042;-66
2022/04/24 10:26:20;;;;;;;0.10;0.10;;;19.20;87.40;;;;;;4992608;28;20460;-66
2022/04/24 10:28:46;;;;;;;0.13;0.13;;;19.30;88.60;;;;;;5001021;28;20045;-66
2022/04/24 10:31:12;;;;;;;0.30;0.28;;;19.00;88.30;;;;;;5005258;28;20045;-66
2022/04/24 10:33:40;;;;;;;0.08;0.08;;;19.20;89.30;;;;;;5009504;28;20393;-66
2022/04/24 10:36:05;;;;;;;0.17;0.08;;;19.00;87.20;;;;;;4998298;28;20049;-66
2022/04/24 10:38:33;;;;;;;0.13;0.13;;;18.80;87.80;;;;;;5005572;28;20451;-66
2022/04/24 10:40:58;;;;;;;3.42;1.80;;;18.80;87.20;;;;;;5003349;28;20720;-66
2022/04/24 10:43:25;;;;;;;3.53;1.67;;;18.70;87.20;;;;;;4993767;28;20046;-66
2022/04/24 10:45:52;;;;;;;0.00;0.00;;;18.50;88.70;;;;;;5001138;28;20046;-66
2022/04/24 10:48:18;;;;;;;0.08;0.08;;;18.80;88.50;;;;;;5005035;28;20486;-67
2022/04/24 10:50:47;;;;;;;0.00;0.00;;;18.80;86.70;;;;;;4994860;28;20146;-67
2022/04/24 10:53:13;;;;;;;0.00;0.00;;;19.00;89.10;;;;;;5001093;28;20077;-67
2022/04/24 10:55:40;;;;;;;0.20;0.20;;;18.60;89.60;;;;;;5004680;28;20418;-67
2022/04/24 10:58:06;;;;;;;0.10;0.10;;;19.00;90.60;;;;;;4991467;28;20086;-67
2022/04/24 11:00:34;;;;;;;1.00;0.47;;;19.10;90.10;;;;;;5007533;28;20065;-66
2022/04/24 11:03:14;;;;;;;0.10;0.10;;;19.10;90.60;;;;;;5004841;28;20048;-67
2022/04/24 11:05:45;;;;;;;4.50;0.57;;;19.00;89.80;;;;;;5009611;28;20077;-66
2022/04/24 11:08:21;;;;;;;0.43;0.43;;;18.90;88.40;;;;;;5009160;28;20040;-67
2022/04/24 11:10:49;;;;;;;0.00;0.00;;;19.00;88.60;;;;;;5004995;28;20049;-67
2022/04/24 11:13:19;;;;;;;3.67;0.40;;;19.20;88.60;;;;;;5010344;28;20042;-67
2022/04/24 11:15:47;;;;;;;0.00;0.00;;;19.40;88.10;;;;;;4999681;28;20093;-67
2022/04/24 11:18:24;;;;;;;0.10;0.10;;;19.10;88.70;;;;;;4995858;28;20462;-67
2022/04/24 11:20:57;;;;;;;0.20;0.20;;;19.40;89.50;;;;;;5000601;28;20074;-67
2022/04/24 11:23:30;;;;;;;0.22;0.22;;;19.00;89.60;;;;;;5002482;28;20367;-67
2022/04/24 11:25:58;;;;;;;0.00;0.00;;;19.00;89.40;;;;;;4999650;28;20367;-67
2022/04/24 11:28:38;;;;;;;0.40;0.40;;;19.10;89.90;;;;;;5010182;28;20046;-68
2022/04/24 11:31:17;;;;;;;0.00;0.00;;;18.80;90.40;;;;;;5001770;28;20054;-67
2022/04/24 11:33:52;;;;;;;0.68;0.60;;;19.10;88.60;;;;;;5000827;28;20177;-67
2022/04/24 11:36:19;;;;;;;0.65;0.55;;;18.80;90.70;;;;;;4999248;28;20478;-68
2022/04/24 11:38:47;;;;;;;0.13;0.13;;;19.30;88.70;;;;;;5006654;28;20156;-68
2022/04/24 11:41:14;;;;;;;0.13;0.13;;;18.90;89.50;;;;;;4991219;28;20046;-67
2022/04/24 11:43:41;;;;;;;0.00;0.00;;;18.90;89.10;;;;;;5004982;28;20048;-68
2022/04/24 11:51:34;;;;;;;0.00;0.00;;;19.20;89.40;;;;;;4993828;28;20048;-68
2022/04/24 11:54:01;;;;;;;0.30;0.25;;;19.30;90.00;;;;;;5006344;28;20057;-68
2022/04/24 11:56:28;;;;;;;0.40;0.40;;;19.20;88.90;;;;;;4991964;28;20057;-68
2022/04/24 11:59:11;;;;;;;0.00;0.00;;;19.40;89.70;;;;;;4997493;28;20140;-68
2022/04/24 12:01:36;;;;;;;0.10;0.10;;;19.40;89.70;;;;;;4998729;28;20050;-67
2022/04/24 12:04:02;;;;;;;0.85;0.82;;;19.40;89.70;;;;;;4998183;28;20038;-67
2022/04/24 12:06:34;;;;;;;0.00;0.00;;;19.10;90.30;;;;;;5006166;28;20060;-66
2022/04/24 12:09:07;;;;;;;0.13;0.13;;;19.20;90.60;;;;;;4993955;28;20038;-67
2022/04/24 12:11:35;;;;;;;0.20;0.20;;;19.50;89.60;;;;;;4990270;28;20493;-67
2022/04/24 12:14:11;;;;;;;0.00;0.00;;;19.70;89.40;;;;;;5001684;28;20691;-67
2022/04/24 12:17:02;;;;;;;0.63;0.63;;;19.40;87.90;;;;;;4995681;28;20045;-67
2022/04/24 12:19:27;;;;;;;0.93;0.88;;;19.70;89.30;;;;;;5008376;28;20132;-67
2022/04/24 12:21:54;;;;;;;0.30;0.30;;;19.80;89.10;;;;;;5006667;28;20129;-67
2022/04/24 12:24:21;;;;;;;0.17;0.17;;;19.80;88.30;;;;;;5010190;28;20060;-67
2022/04/24 12:26:50;;;;;;;0.13;0.13;;;20.20;86.80;;;;;;4992802;28;20082;-68
2022/04/24 12:29:17;;;;;;;0.10;0.10;;;20.00;88.10;;;;;;4999980;28;20077;-67
2022/04/24 12:31:43;;;;;;;0.20;0.20;;;19.80;88.50;;;;;;5008907;28;20046;-67
2022/04/24 12:34:09;;;;;;;0.22;0.22;;;19.60;88.40;;;;;;4993516;28;20093;-67
2022/04/24 12:36:35;;;;;;;3.72;1.75;;;19.70;88.00;;;;;;5007694;28;20049;-67
2022/04/24 12:39:06;;;;;;;0.13;0.13;;;19.40;88.80;;;;;;5007893;28;20046;-67
2022/04/24 12:41:33;;;;;;;0.13;0.13;;;19.50;89.30;;;;;;5003166;28;20039;-67
2022/04/24 12:44:03;;;;;;;0.17;0.17;;;19.80;89.60;;;;;;5007965;28;20077;-67
2022/04/24 12:46:29;;;;;;;0.40;0.40;;;19.40;87.40;;;;;;5012748;28;20052;-67
2022/04/24 12:48:56;;;;;;;0.52;0.30;;;19.60;88.10;;;;;;5008367;28;20388;-67
2022/04/24 12:51:23;;;;;;;0.30;0.30;;;19.60;88.20;;;;;;4996422;28;20520;-67
2022/04/24 12:53:50;;;;;;;0.00;0.00;;;20.10;87.40;;;;;;5007711;28;20046;-67
2022/04/24 12:56:16;;;;;;;0.90;0.17;;;19.90;87.90;;;;;;4997353;28;20050;-67